sensor_id;sensor_type;location;lat;lon;timestamp;temperature;humidity
20463;DHT22;10390;53.566;9.980;2023-06-14T00:00:38;30.70;1.00
20463;DHT22;10390;53.566;9.980;2023-06-14T00:03:11;30.60;1.00
20463;DHT22;10390;53.566;9.980;2023-06-14T00:05:38;30.60;1.00
20463;DHT22;10390;53.566;9.980;2023-06-14T00:08:09;30.60;1.00
20463;DHT22;10390;53.566;9.980;2023-06-14T00:10:38;30.60;1.00
20463;DHT22;10390;53.566;9.980;2023-06-14T00:13:06;30.60;1.00
20463;DHT22;10390;53.566;9.980;2023-06-14T00:15:35;30.60;1.00
20463;DHT22;10390;53.566;9.980;2023-06-14T00:18:01;30.60;1.00
20463;DHT22;10390;53.566;9.980;2023-06-14T00:20:28;30.50;1.00
20463;DHT22;10390;53.566;9.980;2023-06-14T00:22:55;30.60;1.00
20463;DHT22;10390;53.566;9.980;2023-06-14T00:25:23;30.50;1.00
20463;DHT22;10390;53.566;9.980;2023-06-14T00:27:49;30.50;1.00
20463;DHT22;10390;53.566;9.980;2023-06-14T00:30:14;30.50;1.00
20463;DHT22;10390;53.566;9.980;2023-06-14T00:32:40;30.50;1.00
20463;DHT22;10390;53.566;9.980;2023-06-14T00:35:08;30.50;1.00
20463;DHT22;10390;53.566;9.980;2023-06-14T00:37:34;30.50;1.00
20463;DHT22;10390;53.566;9.980;2023-06-14T00:39:59;30.50;1.00
20463;DHT22;10390;53.566;9.980;2023-06-14T00:42:26;30.50;1.00
20463;DHT22;10390;53.566;9.980;2023-06-14T00:44:51;30.50;1.00
20463;DHT22;10390;53.566;9.980;2023-06-14T00:47:17;30.40;1.00
20463;DHT22;10390;53.566;9.980;2023-06-14T00:49:45;30.50;1.00
20463;DHT22;10390;53.566;9.980;2023-06-14T00:52:11;30.50;1.00
20463;DHT22;10390;53.566;9.980;2023-06-14T00:54:38;30.50;1.00
20463;DHT22;10390;53.566;9.980;2023-06-14T00:57:04;30.50;1.00
20463;DHT22;10390;53.566;9.980;2023-06-14T00:59:30;30.50;1.00
20463;DHT22;10390;53.566;9.980;2023-06-14T01:01:55;30.40;1.00
20463;DHT22;10390;53.566;9.980;2023-06-14T01:04:21;30.50;1.00
20463;DHT22;10390;53.566;9.980;2023-06-14T01:07:04;30.40;1.00
20463;DHT22;10390;53.566;9.980;2023-06-14T01:13:02;30.40;1.00
20463;DHT22;10390;53.566;9.980;2023-06-14T01:15:30;30.40;1.00
20463;DHT22;10390;53.566;9.980;2023-06-14T01:17:56;30.40;1.00
20463;DHT22;10390;53.566;9.980;2023-06-14T01:20:42;30.40;1.00
20463;DHT22;10390;53.566;9.980;2023-06-14T01:23:10;30.40;1.00
20463;DHT22;10390;53.566;9.980;2023-06-14T01:25:37;30.40;1.00
20463;DHT22;10390;53.566;9.980;2023-06-14T01:28:05;30.40;1.00
20463;DHT22;10390;53.566;9.980;2023-06-14T01:30:39;30.40;1.00
20463;DHT22;10390;53.566;9.980;2023-06-14T01:33:12;30.40;1.00
20463;DHT22;10390;53.566;9.980;2023-06-14T01:35:40;30.40;1.00
20463;DHT22;10390;53.566;9.980;2023-06-14T01:38:06;30.30;1.00
20463;DHT22;10390;53.566;9.980;2023-06-14T01:40:34;30.30;1.00
20463;DHT22;10390;53.566;9.980;2023-06-14T01:43:01;30.30;1.00
20463;DHT22;10390;53.566;9.980;2023-06-14T01:45:28;30.30;1.00
20463;DHT22;10390;53.566;9.980;2023-06-14T01:47:55;30.30;1.00
20463;DHT22;10390;53.566;9.980;2023-06-14T01:50:21;30.30;1.00
20463;DHT22;10390;53.566;9.980;2023-06-14T01:52:46;30.30;1.00
20463;DHT22;10390;53.566;9.980;2023-06-14T01:55:12;30.30;1.00
20463;DHT22;10390;53.566;9.980;2023-06-14T01:57:38;30.30;1.00
20463;DHT22;10390;53.566;9.980;2023-06-14T02:00:04;30.30;1.00
20463;DHT22;10390;53.566;9.980;2023-06-14T02:02:33;30.30;1.00
20463;DHT22;10390;53.566;9.980;2023-06-14T02:04:59;30.30;1.00
20463;DHT22;10390;53.566;9.980;2023-06-14T02:07:24;30.20;1.00
20463;DHT22;10390;53.566;9.980;2023-06-14T02:09:50;30.20;1.00
20463;DHT22;10390;53.566;9.980;2023-06-14T02:12:16;30.20;1.00
20463;DHT22;10390;53.566;9.980;2023-06-14T02:14:41;30.20;1.00
20463;DHT22;10390;53.566;9.980;2023-06-14T02:17:07;30.20;1.00
20463;DHT22;10390;53.566;9.980;2023-06-14T02:19:33;30.20;1.00
20463;DHT22;10390;53.566;9.980;2023-06-14T02:21:58;30.20;1.00
20463;DHT22;10390;53.566;9.980;2023-06-14T02:24:25;30.20;1.00
20463;DHT22;10390;53.566;9.980;2023-06-14T02:26:50;30.20;1.00
20463;DHT22;10390;53.566;9.980;2023-06-14T02:29:16;30.20;1.00
20463;DHT22;10390;53.566;9.980;2023-06-14T02:31:42;30.20;1.00
20463;DHT22;10390;53.566;9.980;2023-06-14T02:34:07;30.10;1.00
20463;DHT22;10390;53.566;9.980;2023-06-14T02:36:36;30.20;1.00
20463;DHT22;10390;53.566;9.980;2023-06-14T02:39:08;30.10;1.00
20463;DHT22;10390;53.566;9.980;2023-06-14T02:41:35;30.20;1.00
20463;DHT22;10390;53.566;9.980;2023-06-14T02:44:00;30.10;1.00
20463;DHT22;10390;53.566;9.980;2023-06-14T02:46:26;30.20;1.00
20463;DHT22;10390;53.566;9.980;2023-06-14T02:48:51;30.10;1.00
20463;DHT22;10390;53.566;9.980;2023-06-14T02:51:17;30.10;1.00
20463;DHT22;10390;53.566;9.980;2023-06-14T02:53:43;30.10;1.00
20463;DHT22;10390;53.566;9.980;2023-06-14T02:56:09;30.10;1.00
20463;DHT22;10390;53.566;9.980;2023-06-14T02:58:36;30.10;1.00
20463;DHT22;10390;53.566;9.980;2023-06-14T03:01:02;30.10;1.00
20463;DHT22;10390;53.566;9.980;2023-06-14T03:03:28;30.10;1.00
20463;DHT22;10390;53.566;9.980;2023-06-14T03:05:54;30.10;1.00
20463;DHT22;10390;53.566;9.980;2023-06-14T03:08:20;30.10;1.00
20463;DHT22;10390;53.566;9.980;2023-06-14T03:10:46;30.10;1.00
20463;DHT22;10390;53.566;9.980;2023-06-14T03:13:13;30.10;1.00
20463;DHT22;10390;53.566;9.980;2023-06-14T03:15:38;30.10;1.00
20463;DHT22;10390;53.566;9.980;2023-06-14T03:18:07;30.10;1.00
20463;DHT22;10390;53.566;9.980;2023-06-14T03:20:33;30.00;1.00
20463;DHT22;10390;53.566;9.980;2023-06-14T03:23:02;30.10;1.00
20463;DHT22;10390;53.566;9.980;2023-06-14T03:25:29;30.10;1.00
20463;DHT22;10390;53.566;9.980;2023-06-14T03:27:55;30.10;1.00
20463;DHT22;10390;53.566;9.980;2023-06-14T03:30:21;30.00;1.00
20463;DHT22;10390;53.566;9.980;2023-06-14T03:32:47;30.00;1.00
20463;DHT22;10390;53.566;9.980;2023-06-14T03:35:12;30.10;1.00
20463;DHT22;10390;53.566;9.980;2023-06-14T03:37:43;30.00;1.00
20463;DHT22;10390;53.566;9.980;2023-06-14T03:40:11;30.10;1.00
20463;DHT22;10390;53.566;9.980;2023-06-14T03:42:37;30.00;1.00
20463;DHT22;10390;53.566;9.980;2023-06-14T03:45:03;30.00;1.00
20463;DHT22;10390;53.566;9.980;2023-06-14T03:47:28;30.00;1.00
20463;DHT22;10390;53.566;9.980;2023-06-14T03:49:54;30.00;1.00
20463;DHT22;10390;53.566;9.980;2023-06-14T03:52:20;30.00;1.00
20463;DHT22;10390;53.566;9.980;2023-06-14T03:54:47;30.00;1.00
20463;DHT22;10390;53.566;9.980;2023-06-14T03:57:13;30.00;1.00
20463;DHT22;10390;53.566;9.980;2023-06-14T03:59:38;30.00;1.00
20463;DHT22;10390;53.566;9.980;2023-06-14T04:02:04;30.00;1.00
20463;DHT22;10390;53.566;9.980;2023-06-14T04:04:30;30.00;1.00
20463;DHT22;10390;53.566;9.980;2023-06-14T04:06:57;30.00;1.00
20463;DHT22;10390;53.566;9.980;2023-06-14T04:09:24;30.00;1.00
20463;DHT22;10390;53.566;9.980;2023-06-14T04:11:54;30.00;1.00
20463;DHT22;10390;53.566;9.980;2023-06-14T04:14:20;30.00;1.00
20463;DHT22;10390;53.566;9.980;2023-06-14T04:16:46;30.00;1.00
20463;DHT22;10390;53.566;9.980;2023-06-14T04:19:12;30.00;1.00
20463;DHT22;10390;53.566;9.980;2023-06-14T04:21:38;29.90;1.00
20463;DHT22;10390;53.566;9.980;2023-06-14T04:24:04;29.90;1.00
20463;DHT22;10390;53.566;9.980;2023-06-14T04:26:29;29.90;1.00
20463;DHT22;10390;53.566;9.980;2023-06-14T04:28:59;29.90;1.00
20463;DHT22;10390;53.566;9.980;2023-06-14T04:31:28;29.90;1.00
20463;DHT22;10390;53.566;9.980;2023-06-14T04:33:55;29.90;1.00
20463;DHT22;10390;53.566;9.980;2023-06-14T04:36:21;29.90;1.00
20463;DHT22;10390;53.566;9.980;2023-06-14T04:38:46;29.90;1.00
20463;DHT22;10390;53.566;9.980;2023-06-14T04:41:14;29.90;1.00
20463;DHT22;10390;53.566;9.980;2023-06-14T04:43:41;29.90;1.00
20463;DHT22;10390;53.566;9.980;2023-06-14T04:46:08;29.90;1.00
20463;DHT22;10390;53.566;9.980;2023-06-14T04:48:35;29.90;1.00
20463;DHT22;10390;53.566;9.980;2023-06-14T04:51:01;29.90;1.00
20463;DHT22;10390;53.566;9.980;2023-06-14T04:53:29;29.90;1.00
20463;DHT22;10390;53.566;9.980;2023-06-14T04:55:54;29.90;1.00
20463;DHT22;10390;53.566;9.980;2023-06-14T04:58:20;29.90;1.00
20463;DHT22;10390;53.566;9.980;2023-06-14T05:00:46;30.00;1.00
20463;DHT22;10390;53.566;9.980;2023-06-14T05:03:11;29.90;1.00
20463;DHT22;10390;53.566;9.980;2023-06-14T05:05:39;30.00;1.00
20463;DHT22;10390;53.566;9.980;2023-06-14T05:08:06;30.00;1.00
20463;DHT22;10390;53.566;9.980;2023-06-14T05:10:31;30.00;1.00
20463;DHT22;10390;53.566;9.980;2023-06-14T05:12:57;30.00;1.00
20463;DHT22;10390;53.566;9.980;2023-06-14T05:15:22;30.00;1.00
20463;DHT22;10390;53.566;9.980;2023-06-14T05:17:51;30.00;1.00
20463;DHT22;10390;53.566;9.980;2023-06-14T05:20:24;30.10;1.00
20463;DHT22;10390;53.566;9.980;2023-06-14T05:22:51;30.10;1.00
20463;DHT22;10390;53.566;9.980;2023-06-14T05:25:17;30.10;1.00
20463;DHT22;10390;53.566;9.980;2023-06-14T05:27:43;30.10;1.00
20463;DHT22;10390;53.566;9.980;2023-06-14T05:30:09;30.20;1.00
20463;DHT22;10390;53.566;9.980;2023-06-14T05:32:35;30.20;1.00
20463;DHT22;10390;53.566;9.980;2023-06-14T05:35:01;30.20;1.00
20463;DHT22;10390;53.566;9.980;2023-06-14T05:37:26;30.20;1.00
20463;DHT22;10390;53.566;9.980;2023-06-14T05:39:52;30.30;1.00
20463;DHT22;10390;53.566;9.980;2023-06-14T05:42:17;30.30;1.00
20463;DHT22;10390;53.566;9.980;2023-06-14T05:44:43;30.30;1.00
20463;DHT22;10390;53.566;9.980;2023-06-14T05:47:08;30.40;1.00
20463;DHT22;10390;53.566;9.980;2023-06-14T05:49:34;30.40;1.00
20463;DHT22;10390;53.566;9.980;2023-06-14T05:52:00;30.40;1.00
20463;DHT22;10390;53.566;9.980;2023-06-14T05:54:26;30.40;1.00
20463;DHT22;10390;53.566;9.980;2023-06-14T05:56:51;30.40;1.00
20463;DHT22;10390;53.566;9.980;2023-06-14T05:59:17;30.50;1.00
20463;DHT22;10390;53.566;9.980;2023-06-14T06:01:42;30.50;1.00
20463;DHT22;10390;53.566;9.980;2023-06-14T06:04:09;30.50;1.00
20463;DHT22;10390;53.566;9.980;2023-06-14T06:06:34;30.60;1.00
20463;DHT22;10390;53.566;9.980;2023-06-14T06:09:01;30.60;1.00
20463;DHT22;10390;53.566;9.980;2023-06-14T06:11:27;30.60;1.00
20463;DHT22;10390;53.566;9.980;2023-06-14T06:13:53;30.60;1.00
20463;DHT22;10390;53.566;9.980;2023-06-14T06:16:18;30.70;1.00
20463;DHT22;10390;53.566;9.980;2023-06-14T06:18:44;30.70;1.00
20463;DHT22;10390;53.566;9.980;2023-06-14T06:21:10;30.70;1.00
20463;DHT22;10390;53.566;9.980;2023-06-14T06:23:35;30.80;1.00
20463;DHT22;10390;53.566;9.980;2023-06-14T06:26:02;30.80;1.00
20463;DHT22;10390;53.566;9.980;2023-06-14T06:28:27;30.80;1.00
20463;DHT22;10390;53.566;9.980;2023-06-14T06:30:54;30.90;1.00
20463;DHT22;10390;53.566;9.980;2023-06-14T06:33:19;30.90;1.00
20463;DHT22;10390;53.566;9.980;2023-06-14T06:35:45;30.90;1.00
20463;DHT22;10390;53.566;9.980;2023-06-14T06:38:11;31.00;1.00
20463;DHT22;10390;53.566;9.980;2023-06-14T06:40:36;31.00;1.00
20463;DHT22;10390;53.566;9.980;2023-06-14T06:43:02;31.00;1.00
20463;DHT22;10390;53.566;9.980;2023-06-14T06:45:28;31.10;1.00
20463;DHT22;10390;53.566;9.980;2023-06-14T06:47:54;31.10;1.00
20463;DHT22;10390;53.566;9.980;2023-06-14T06:50:21;31.10;1.00
20463;DHT22;10390;53.566;9.980;2023-06-14T06:52:48;31.20;1.00
20463;DHT22;10390;53.566;9.980;2023-06-14T06:55:14;31.20;1.00
20463;DHT22;10390;53.566;9.980;2023-06-14T06:57:40;31.20;1.00
20463;DHT22;10390;53.566;9.980;2023-06-14T07:00:07;31.30;1.00
20463;DHT22;10390;53.566;9.980;2023-06-14T07:02:34;31.30;1.00
20463;DHT22;10390;53.566;9.980;2023-06-14T07:05:00;31.40;1.00
20463;DHT22;10390;53.566;9.980;2023-06-14T07:07:26;31.40;1.00
20463;DHT22;10390;53.566;9.980;2023-06-14T07:09:51;31.40;1.00
20463;DHT22;10390;53.566;9.980;2023-06-14T07:12:17;31.40;1.00
20463;DHT22;10390;53.566;9.980;2023-06-14T07:14:43;31.50;1.00
20463;DHT22;10390;53.566;9.980;2023-06-14T07:17:09;31.50;1.00
20463;DHT22;10390;53.566;9.980;2023-06-14T07:19:35;31.50;1.00
20463;DHT22;10390;53.566;9.980;2023-06-14T07:22:00;31.50;1.00
20463;DHT22;10390;53.566;9.980;2023-06-14T07:24:26;31.60;1.00
20463;DHT22;10390;53.566;9.980;2023-06-14T07:26:53;31.60;1.00
20463;DHT22;10390;53.566;9.980;2023-06-14T07:29:20;31.70;1.00
20463;DHT22;10390;53.566;9.980;2023-06-14T07:31:46;31.70;1.00
20463;DHT22;10390;53.566;9.980;2023-06-14T07:34:12;31.70;1.00
20463;DHT22;10390;53.566;9.980;2023-06-14T07:36:38;31.70;1.00
20463;DHT22;10390;53.566;9.980;2023-06-14T07:39:04;31.70;1.00
20463;DHT22;10390;53.566;9.980;2023-06-14T07:41:31;31.80;1.00
20463;DHT22;10390;53.566;9.980;2023-06-14T07:43:57;31.80;1.00
20463;DHT22;10390;53.566;9.980;2023-06-14T07:46:23;31.80;1.00
20463;DHT22;10390;53.566;9.980;2023-06-14T07:48:48;31.90;1.00
20463;DHT22;10390;53.566;9.980;2023-06-14T07:51:14;31.90;1.00
20463;DHT22;10390;53.566;9.980;2023-06-14T07:53:40;31.90;1.00
20463;DHT22;10390;53.566;9.980;2023-06-14T07:56:06;31.90;1.00
20463;DHT22;10390;53.566;9.980;2023-06-14T07:58:32;31.90;1.00
20463;DHT22;10390;53.566;9.980;2023-06-14T08:00:58;32.00;1.00
20463;DHT22;10390;53.566;9.980;2023-06-14T08:03:23;32.00;1.00
20463;DHT22;10390;53.566;9.980;2023-06-14T08:05:49;32.00;1.00
20463;DHT22;10390;53.566;9.980;2023-06-14T08:08:15;32.00;1.00
20463;DHT22;10390;53.566;9.980;2023-06-14T08:10:41;32.10;1.00
20463;DHT22;10390;53.566;9.980;2023-06-14T08:13:07;32.10;1.00
20463;DHT22;10390;53.566;9.980;2023-06-14T08:15:34;32.10;1.00
20463;DHT22;10390;53.566;9.980;2023-06-14T08:18:00;32.10;1.00
20463;DHT22;10390;53.566;9.980;2023-06-14T08:20:26;32.20;1.00
20463;DHT22;10390;53.566;9.980;2023-06-14T08:22:52;32.10;1.00
20463;DHT22;10390;53.566;9.980;2023-06-14T08:25:20;32.20;1.00
20463;DHT22;10390;53.566;9.980;2023-06-14T08:27:46;32.20;1.00
20463;DHT22;10390;53.566;9.980;2023-06-14T08:30:12;32.20;1.00
20463;DHT22;10390;53.566;9.980;2023-06-14T08:32:38;32.20;1.00
20463;DHT22;10390;53.566;9.980;2023-06-14T08:35:04;32.20;1.00
20463;DHT22;10390;53.566;9.980;2023-06-14T08:37:31;32.20;1.00
20463;DHT22;10390;53.566;9.980;2023-06-14T08:40:03;32.20;1.00
20463;DHT22;10390;53.566;9.980;2023-06-14T08:42:32;32.30;1.00
20463;DHT22;10390;53.566;9.980;2023-06-14T08:44:58;32.20;1.00
20463;DHT22;10390;53.566;9.980;2023-06-14T08:47:26;32.30;1.00
20463;DHT22;10390;53.566;9.980;2023-06-14T08:49:55;32.30;1.00
20463;DHT22;10390;53.566;9.980;2023-06-14T08:52:24;32.30;1.00
20463;DHT22;10390;53.566;9.980;2023-06-14T08:54:59;32.30;1.00
20463;DHT22;10390;53.566;9.980;2023-06-14T08:57:26;32.30;1.00
20463;DHT22;10390;53.566;9.980;2023-06-14T08:59:56;32.30;1.00
20463;DHT22;10390;53.566;9.980;2023-06-14T09:02:22;32.30;1.00
20463;DHT22;10390;53.566;9.980;2023-06-14T09:04:48;32.30;1.00
20463;DHT22;10390;53.566;9.980;2023-06-14T09:07:15;32.40;1.00
20463;DHT22;10390;53.566;9.980;2023-06-14T09:09:41;32.40;1.00
20463;DHT22;10390;53.566;9.980;2023-06-14T09:12:12;32.30;1.00
20463;DHT22;10390;53.566;9.980;2023-06-14T09:14:39;32.30;1.00
20463;DHT22;10390;53.566;9.980;2023-06-14T09:17:07;32.30;1.00
20463;DHT22;10390;53.566;9.980;2023-06-14T09:19:33;32.30;1.00
20463;DHT22;10390;53.566;9.980;2023-06-14T09:22:00;32.40;1.00
20463;DHT22;10390;53.566;9.980;2023-06-14T09:24:25;32.40;1.00
20463;DHT22;10390;53.566;9.980;2023-06-14T09:26:51;32.30;1.00
20463;DHT22;10390;53.566;9.980;2023-06-14T09:29:21;32.30;1.00
20463;DHT22;10390;53.566;9.980;2023-06-14T09:31:47;32.30;1.00
20463;DHT22;10390;53.566;9.980;2023-06-14T09:34:13;32.30;1.00
20463;DHT22;10390;53.566;9.980;2023-06-14T09:36:42;32.30;1.00
20463;DHT22;10390;53.566;9.980;2023-06-14T09:39:08;32.30;1.00
20463;DHT22;10390;53.566;9.980;2023-06-14T09:44:01;32.20;1.00
20463;DHT22;10390;53.566;9.980;2023-06-14T09:46:28;32.30;1.00
20463;DHT22;10390;53.566;9.980;2023-06-14T09:48:55;32.30;1.00
20463;DHT22;10390;53.566;9.980;2023-06-14T09:51:22;32.20;1.00
20463;DHT22;10390;53.566;9.980;2023-06-14T09:53:52;32.20;1.00
20463;DHT22;10390;53.566;9.980;2023-06-14T09:56:28;32.20;1.00
20463;DHT22;10390;53.566;9.980;2023-06-14T09:58:56;32.20;1.00
20463;DHT22;10390;53.566;9.980;2023-06-14T10:01:24;32.20;1.00
20463;DHT22;10390;53.566;9.980;2023-06-14T10:04:10;32.20;1.00
20463;DHT22;10390;53.566;9.980;2023-06-14T10:06:40;32.20;1.00
20463;DHT22;10390;53.566;9.980;2023-06-14T10:09:10;32.20;1.00
20463;DHT22;10390;53.566;9.980;2023-06-14T10:11:36;32.20;1.00
20463;DHT22;10390;53.566;9.980;2023-06-14T10:14:05;32.10;1.00
20463;DHT22;10390;53.566;9.980;2023-06-14T10:16:49;32.10;1.00
20463;DHT22;10390;53.566;9.980;2023-06-14T10:19:26;32.10;1.00
20463;DHT22;10390;53.566;9.980;2023-06-14T10:22:16;32.10;1.00
20463;DHT22;10390;53.566;9.980;2023-06-14T10:24:44;32.10;1.00
20463;DHT22;10390;53.566;9.980;2023-06-14T10:27:13;32.20;1.00
20463;DHT22;10390;53.566;9.980;2023-06-14T10:32:22;32.10;1.00
20463;DHT22;10390;53.566;9.980;2023-06-14T10:35:04;32.10;1.00
20463;DHT22;10390;53.566;9.980;2023-06-14T10:37:32;32.10;1.00
20463;DHT22;10390;53.566;9.980;2023-06-14T10:39:58;32.10;1.00
20463;DHT22;10390;53.566;9.980;2023-06-14T10:42:28;32.10;1.00
20463;DHT22;10390;53.566;9.980;2023-06-14T10:44:57;32.10;1.00
20463;DHT22;10390;53.566;9.980;2023-06-14T10:47:32;32.10;1.00
20463;DHT22;10390;53.566;9.980;2023-06-14T10:50:10;32.10;1.00
20463;DHT22;10390;53.566;9.980;2023-06-14T10:52:43;32.10;1.00
20463;DHT22;10390;53.566;9.980;2023-06-14T11:00:07;32.00;1.00
20463;DHT22;10390;53.566;9.980;2023-06-14T11:05:57;32.00;1.00
20463;DHT22;10390;53.566;9.980;2023-06-14T11:10:59;32.00;1.00
20463;DHT22;10390;53.566;9.980;2023-06-14T11:13:26;32.00;1.00
20463;DHT22;10390;53.566;9.980;2023-06-14T11:15:51;32.00;1.00
20463;DHT22;10390;53.566;9.980;2023-06-14T11:18:22;32.00;1.00
20463;DHT22;10390;53.566;9.980;2023-06-14T11:20:53;32.00;1.00
20463;DHT22;10390;53.566;9.980;2023-06-14T11:23:19;32.00;1.00
20463;DHT22;10390;53.566;9.980;2023-06-14T11:25:50;31.90;1.00
20463;DHT22;10390;53.566;9.980;2023-06-14T11:28:16;31.90;1.00
20463;DHT22;10390;53.566;9.980;2023-06-14T11:30:42;31.90;1.00
20463;DHT22;10390;53.566;9.980;2023-06-14T11:33:10;31.90;1.00
20463;DHT22;10390;53.566;9.980;2023-06-14T11:35:36;31.90;1.00
20463;DHT22;10390;53.566;9.980;2023-06-14T11:38:02;31.90;1.00
20463;DHT22;10390;53.566;9.980;2023-06-14T11:40:28;31.90;1.00
20463;DHT22;10390;53.566;9.980;2023-06-14T11:43:01;31.90;1.00
20463;DHT22;10390;53.566;9.980;2023-06-14T11:45:27;31.80;1.00
20463;DHT22;10390;53.566;9.980;2023-06-14T11:47:55;31.80;1.00
20463;DHT22;10390;53.566;9.980;2023-06-14T11:50:22;31.80;1.00
20463;DHT22;10390;53.566;9.980;2023-06-14T11:52:58;31.80;1.00
20463;DHT22;10390;53.566;9.980;2023-06-14T11:55:39;31.80;1.00
20463;DHT22;10390;53.566;9.980;2023-06-14T11:58:06;31.80;1.00
20463;DHT22;10390;53.566;9.980;2023-06-14T12:00:32;31.80;1.00
20463;DHT22;10390;53.566;9.980;2023-06-14T12:02:58;31.80;1.00
20463;DHT22;10390;53.566;9.980;2023-06-14T12:05:25;31.80;1.00
20463;DHT22;10390;53.566;9.980;2023-06-14T12:07:58;31.80;1.00
20463;DHT22;10390;53.566;9.980;2023-06-14T12:10:25;31.70;1.00
20463;DHT22;10390;53.566;9.980;2023-06-14T12:12:56;31.70;1.00
20463;DHT22;10390;53.566;9.980;2023-06-14T12:15:21;31.70;1.00
20463;DHT22;10390;53.566;9.980;2023-06-14T12:17:47;31.70;1.00
20463;DHT22;10390;53.566;9.980;2023-06-14T12:20:13;31.70;1.00
20463;DHT22;10390;53.566;9.980;2023-06-14T12:22:54;31.70;1.00
20463;DHT22;10390;53.566;9.980;2023-06-14T12:25:30;31.70;1.00
20463;DHT22;10390;53.566;9.980;2023-06-14T12:27:58;31.70;1.00
20463;DHT22;10390;53.566;9.980;2023-06-14T12:30:24;31.70;1.00
20463;DHT22;10390;53.566;9.980;2023-06-14T12:32:49;31.70;1.00
20463;DHT22;10390;53.566;9.980;2023-06-14T12:35:17;31.60;1.00
20463;DHT22;10390;53.566;9.980;2023-06-14T12:37:45;31.70;1.00
20463;DHT22;10390;53.566;9.980;2023-06-14T12:40:11;31.70;1.00
20463;DHT22;10390;53.566;9.980;2023-06-14T12:42:37;31.70;1.00
20463;DHT22;10390;53.566;9.980;2023-06-14T12:45:03;31.70;1.00
20463;DHT22;10390;53.566;9.980;2023-06-14T12:47:29;31.60;1.00
20463;DHT22;10390;53.566;9.980;2023-06-14T12:49:55;31.60;1.00
20463;DHT22;10390;53.566;9.980;2023-06-14T12:52:20;31.60;1.00
20463;DHT22;10390;53.566;9.980;2023-06-14T12:54:46;31.60;1.00
20463;DHT22;10390;53.566;9.980;2023-06-14T12:57:12;31.60;1.00
20463;DHT22;10390;53.566;9.980;2023-06-14T12:59:38;31.50;1.00
20463;DHT22;10390;53.566;9.980;2023-06-14T13:02:13;31.50;1.00
20463;DHT22;10390;53.566;9.980;2023-06-14T13:04:39;31.60;1.00
20463;DHT22;10390;53.566;9.980;2023-06-14T13:07:05;31.50;1.00
20463;DHT22;10390;53.566;9.980;2023-06-14T13:09:30;31.50;1.00
20463;DHT22;10390;53.566;9.980;2023-06-14T13:11:56;31.50;1.00
20463;DHT22;10390;53.566;9.980;2023-06-14T13:14:22;31.50;1.00
20463;DHT22;10390;53.566;9.980;2023-06-14T13:16:48;31.50;1.00
20463;DHT22;10390;53.566;9.980;2023-06-14T13:19:13;31.50;1.00
20463;DHT22;10390;53.566;9.980;2023-06-14T13:21:39;31.50;1.00
20463;DHT22;10390;53.566;9.980;2023-06-14T13:24:05;31.50;1.00
20463;DHT22;10390;53.566;9.980;2023-06-14T13:26:32;31.50;1.00
20463;DHT22;10390;53.566;9.980;2023-06-14T13:28:57;31.50;1.00
20463;DHT22;10390;53.566;9.980;2023-06-14T13:31:23;31.50;1.00
20463;DHT22;10390;53.566;9.980;2023-06-14T13:33:49;31.50;1.00
20463;DHT22;10390;53.566;9.980;2023-06-14T13:36:14;31.50;1.00
20463;DHT22;10390;53.566;9.980;2023-06-14T13:38:40;31.50;1.00
20463;DHT22;10390;53.566;9.980;2023-06-14T13:41:06;31.50;1.00
20463;DHT22;10390;53.566;9.980;2023-06-14T13:43:31;31.50;1.00
20463;DHT22;10390;53.566;9.980;2023-06-14T13:45:57;31.50;1.00
20463;DHT22;10390;53.566;9.980;2023-06-14T13:48:22;31.40;1.00
20463;DHT22;10390;53.566;9.980;2023-06-14T13:50:49;31.50;1.00
20463;DHT22;10390;53.566;9.980;2023-06-14T13:53:14;31.50;1.00
20463;DHT22;10390;53.566;9.980;2023-06-14T13:55:40;31.40;1.00
20463;DHT22;10390;53.566;9.980;2023-06-14T13:58:06;31.50;1.00
20463;DHT22;10390;53.566;9.980;2023-06-14T14:00:31;31.40;1.00
20463;DHT22;10390;53.566;9.980;2023-06-14T14:02:57;31.40;1.00
20463;DHT22;10390;53.566;9.980;2023-06-14T14:05:26;31.50;1.00
20463;DHT22;10390;53.566;9.980;2023-06-14T14:07:55;31.40;1.00
20463;DHT22;10390;53.566;9.980;2023-06-14T14:10:22;31.40;1.00
20463;DHT22;10390;53.566;9.980;2023-06-14T14:12:48;31.50;1.00
20463;DHT22;10390;53.566;9.980;2023-06-14T14:15:14;31.40;1.00
20463;DHT22;10390;53.566;9.980;2023-06-14T14:17:41;31.40;1.00
20463;DHT22;10390;53.566;9.980;2023-06-14T14:20:07;31.40;1.00
20463;DHT22;10390;53.566;9.980;2023-06-14T14:22:33;31.40;1.00
20463;DHT22;10390;53.566;9.980;2023-06-14T14:24:59;31.40;1.00
20463;DHT22;10390;53.566;9.980;2023-06-14T14:27:24;31.40;1.00
20463;DHT22;10390;53.566;9.980;2023-06-14T14:29:50;31.40;1.00
20463;DHT22;10390;53.566;9.980;2023-06-14T14:32:15;31.40;1.00
20463;DHT22;10390;53.566;9.980;2023-06-14T14:34:41;31.40;1.00
20463;DHT22;10390;53.566;9.980;2023-06-14T14:37:07;31.40;1.00
20463;DHT22;10390;53.566;9.980;2023-06-14T14:39:32;31.40;1.00
20463;DHT22;10390;53.566;9.980;2023-06-14T14:41:58;31.40;1.00
20463;DHT22;10390;53.566;9.980;2023-06-14T14:44:24;31.40;1.00
20463;DHT22;10390;53.566;9.980;2023-06-14T14:46:49;31.40;1.00
20463;DHT22;10390;53.566;9.980;2023-06-14T14:49:15;31.40;1.00
20463;DHT22;10390;53.566;9.980;2023-06-14T14:51:40;31.40;1.00
20463;DHT22;10390;53.566;9.980;2023-06-14T14:54:06;31.40;1.00
20463;DHT22;10390;53.566;9.980;2023-06-14T14:56:32;31.40;1.00
20463;DHT22;10390;53.566;9.980;2023-06-14T14:58:58;31.40;1.00
20463;DHT22;10390;53.566;9.980;2023-06-14T15:01:23;31.40;1.00
20463;DHT22;10390;53.566;9.980;2023-06-14T15:03:49;31.40;1.00
20463;DHT22;10390;53.566;9.980;2023-06-14T15:06:15;31.40;1.00
20463;DHT22;10390;53.566;9.980;2023-06-14T15:08:40;31.40;1.00
20463;DHT22;10390;53.566;9.980;2023-06-14T15:11:06;31.40;1.00
20463;DHT22;10390;53.566;9.980;2023-06-14T15:13:32;31.40;1.00
20463;DHT22;10390;53.566;9.980;2023-06-14T15:15:57;31.40;1.00
20463;DHT22;10390;53.566;9.980;2023-06-14T15:18:23;31.40;1.00
20463;DHT22;10390;53.566;9.980;2023-06-14T15:20:49;31.40;1.00
20463;DHT22;10390;53.566;9.980;2023-06-14T15:23:15;31.40;1.00
20463;DHT22;10390;53.566;9.980;2023-06-14T15:25:46;31.40;1.00
20463;DHT22;10390;53.566;9.980;2023-06-14T15:28:12;31.40;1.00
20463;DHT22;10390;53.566;9.980;2023-06-14T15:30:38;31.40;1.00
20463;DHT22;10390;53.566;9.980;2023-06-14T15:33:04;31.40;1.00
20463;DHT22;10390;53.566;9.980;2023-06-14T15:35:30;31.40;1.00
20463;DHT22;10390;53.566;9.980;2023-06-14T15:37:55;31.40;1.00
20463;DHT22;10390;53.566;9.980;2023-06-14T15:40:21;31.40;1.00
20463;DHT22;10390;53.566;9.980;2023-06-14T15:42:47;31.40;1.00
20463;DHT22;10390;53.566;9.980;2023-06-14T15:45:12;31.40;1.00
20463;DHT22;10390;53.566;9.980;2023-06-14T15:47:38;31.40;1.00
20463;DHT22;10390;53.566;9.980;2023-06-14T15:50:05;31.30;1.00
20463;DHT22;10390;53.566;9.980;2023-06-14T15:52:33;31.30;1.00
20463;DHT22;10390;53.566;9.980;2023-06-14T15:54:59;31.40;1.00
20463;DHT22;10390;53.566;9.980;2023-06-14T15:57:24;31.40;1.00
20463;DHT22;10390;53.566;9.980;2023-06-14T15:59:51;31.40;1.00
20463;DHT22;10390;53.566;9.980;2023-06-14T16:02:17;31.40;1.00